Darstellungsparameter: Aktuell verwendete Einstellungen:
Skalierung der Graphiken ... ?
xyx+y,   Skalierungsfaktor:      Skalierung: Modus: x, Faktor: 1
Darstellungszeitraum ... ?
Vom - - bis: - -   Zeitraum: 30.12.2010 - 30.12.2010
Min/Max/Avg-Anzeige ... ?
Zeige MMA aktuell
Zeige MMA Monat
Zeige MMA alles
Zeige --A aktuell
Zeige --A Monat
Zeige --A alles
Keine MMA-Anzeige
MMA:
Minimum Maximum Average (ber die Originaldaten)
MMA-Basis: 30.12.2010 - 30.12.2010
Quicknavigation für Darstellung... ?
Tage:      1T, 2T, 3T, 5T -1T -2T -3T -5T +1T +2T +3T +5T
Wochen: 1W, 2W, 3W -1W -2W -3W +1W +2W +3W
Monate: 1M, 3M, 6M -1M -3M -6M +1M +3M +6M
Jahre:    1J, 3J, 5J, 10J -1J -3J -5J -10J +1J +3J +5J +10J
Nutze für die Darstellung ... ?
Originaldaten oder Mittelwerte auf ...
Stundenbasis Tagesbasis Wochenbasis
Monatsbasis Jahresbasis      Datenbasis: Original-Daten
Darstellen als:
Statistik (Auto) Statistik J:M      Darstellung:
Zur Graphik,    zurück zur Übersicht aller Sensoren.
 
Tabellarische Datenbersicht: ?
 
Sensor: Nr:Datum:Temp:Abs-Feuchte:Windchill:Wind:
Aussen-T/F 1 30-12-2010 00:12:59 -0.9 C 3.78 g/m*3 -0.9 C 0 km/h
2 30-12-2010 00:24:59 -0.9 C 3.82 g/m*3 -0.9 C 0 km/h
3 30-12-2010 00:36:59 -0.9 C 3.82 g/m*3 -0.9 C 0 km/h
4 30-12-2010 00:48:59 -1 C 3.75 g/m*3 -1 C 0 km/h
5 30-12-2010 01:00:59 -1.1 C 3.73 g/m*3 -1.1 C 0 km/h
6 30-12-2010 01:12:59 -1.4 C 3.65 g/m*3 -1.4 C 0 km/h
7 30-12-2010 01:24:59 -1.3 C 3.72 g/m*3 -1.3 C 0 km/h
8 30-12-2010 01:36:59 -1.3 C 3.72 g/m*3 -1.3 C 0 km/h
9 30-12-2010 01:49:00 -1.5 C 3.67 g/m*3 -1.5 C 0 km/h
10 30-12-2010 02:01:00 -1.5 C 3.71 g/m*3 -1.5 C 0 km/h
11 30-12-2010 02:13:00 -1.6 C 3.68 g/m*3 -1.6 C 0 km/h
12 30-12-2010 02:25:00 -1.5 C 3.75 g/m*3 -1.5 C 0 km/h
13 30-12-2010 02:37:00 -1.4 C 3.78 g/m*3 -1.4 C 0 km/h
14 30-12-2010 02:49:00 -1.3 C 3.81 g/m*3 -1.3 C 0 km/h
15 30-12-2010 03:01:00 -1.2 C 3.83 g/m*3 -1.2 C 0 km/h
16 30-12-2010 03:13:00 -1.2 C 3.83 g/m*3 -1.2 C 0 km/h
17 30-12-2010 03:25:00 -1.1 C 3.86 g/m*3 -1.1 C 0 km/h
18 30-12-2010 03:37:00 -1.1 C 3.86 g/m*3 -1.1 C 0 km/h
19 30-12-2010 03:49:00 -1.1 C 3.86 g/m*3 -1.1 C 0 km/h
20 30-12-2010 04:01:00 -1.1 C 3.82 g/m*3 -1.1 C 0 km/h
21 30-12-2010 04:13:00 -1.1 C 3.82 g/m*3 -1.1 C 0 km/h
22 30-12-2010 04:25:00 -1.1 C 3.77 g/m*3 -1.1 C 0 km/h
23 30-12-2010 04:37:00 -1.2 C 3.7 g/m*3 -1.2 C 0 km/h
24 30-12-2010 04:49:00 -1.2 C 3.7 g/m*3 -1.2 C 0 km/h
25 30-12-2010 05:01:00 -1.2 C 3.7 g/m*3 -1.2 C 0 km/h
Sensor: Nr:Datum:Temp:Abs-Feuchte:Windchill:Wind:
Aussen-T/F 26 30-12-2010 05:13:00 -1.2 C 3.66 g/m*3 -1.2 C 0 km/h
27 30-12-2010 05:25:00 -1.2 C 3.61 g/m*3 -1.2 C 0 km/h
28 30-12-2010 05:37:00 -1.2 C 3.61 g/m*3 -1.2 C 0 km/h
29 30-12-2010 05:49:01 -9.3 C 2.01 g/m*3 -9.3 C 0 km/h
30 30-12-2010 06:01:01 -1.2 C 3.57 g/m*3 -1.2 C 0 km/h
31 30-12-2010 06:13:01 -1.2 C 3.57 g/m*3 -1.2 C 0 km/h
32 30-12-2010 06:25:01 -1.2 C 3.52 g/m*3 -1.2 C 0 km/h
33 30-12-2010 06:37:01 -1.3 C 3.5 g/m*3 -1.3 C 0 km/h
34 30-12-2010 06:49:01 -1.3 C 3.5 g/m*3 -1.3 C 0 km/h
35 30-12-2010 07:01:01 -1.3 C 3.45 g/m*3 -1.3 C 0 km/h
36 30-12-2010 07:13:01 -1.3 C 3.45 g/m*3 -1.3 C 0 km/h
37 30-12-2010 07:25:01 -1.3 C 3.45 g/m*3 -1.3 C 0 km/h
38 30-12-2010 07:37:01 -1.4 C 3.43 g/m*3 -1.4 C 0 km/h
39 30-12-2010 07:49:01 -1.4 C 3.43 g/m*3 -1.4 C 0 km/h
40 30-12-2010 08:01:01 -1.4 C 3.43 g/m*3 -1.4 C 0 km/h
41 30-12-2010 08:13:01 -1.4 C 3.43 g/m*3 -1.4 C 0 km/h
42 30-12-2010 08:25:01 -1.4 C 3.43 g/m*3 -1.4 C 0 km/h
43 30-12-2010 08:37:01 -1.4 C 3.47 g/m*3 -1.4 C 0 km/h
44 30-12-2010 08:49:01 -1.4 C 3.47 g/m*3 -1.4 C 0 km/h
45 30-12-2010 09:01:01 -1.3 C 3.45 g/m*3 -1.3 C 0 km/h
46 30-12-2010 09:13:01 -1.2 C 3.48 g/m*3 -1.2 C 0 km/h
47 30-12-2010 09:25:01 -1.1 C 3.5 g/m*3 -1.1 C 0 km/h
48 30-12-2010 09:37:01 -1 C 3.44 g/m*3 -1 C 0 km/h
49 30-12-2010 09:49:02 -0.9 C 3.46 g/m*3 -0.9 C 0 km/h
50 30-12-2010 10:01:02 -0.7 C 3.46 g/m*3 -0.7 C 0 km/h
Sensor: Nr:Datum:Temp:Abs-Feuchte:Windchill:Wind:
Aussen-T/F 51 30-12-2010 10:01:03 -0.8 C 3.39 g/m*3 -0.8 C 0 km/h
52 30-12-2010 10:13:03 -0.6 C 3.44 g/m*3 -0.6 C 0 km/h
53 30-12-2010 10:25:02 -0.3 C 3.51 g/m*3 -0.3 C 0 km/h
54 30-12-2010 10:37:03 -0.3 C 3.46 g/m*3 -0.3 C 0 km/h
55 30-12-2010 10:49:01 0 C 3.49 g/m*3 0 C 0 km/h
56 30-12-2010 11:01:02 0.1 C 3.51 g/m*3 0.1 C 0 km/h
57 30-12-2010 11:13:02 -0.1 C 3.51 g/m*3 -0.1 C 0 km/h
58 30-12-2010 11:25:02 0 C 3.54 g/m*3 0 C 0 km/h
59 30-12-2010 11:37:02 0.1 C 3.51 g/m*3 0.1 C 0 km/h
60 30-12-2010 11:49:02 0.3 C 3.56 g/m*3 0.3 C 0 km/h
61 30-12-2010 12:01:02 0.4 C 3.59 g/m*3 0.4 C 0 km/h
62 30-12-2010 12:13:02 0.3 C 3.56 g/m*3 0.3 C 0 km/h
63 30-12-2010 12:25:02 0.5 C 3.61 g/m*3 0.5 C 0 km/h
64 30-12-2010 12:37:01 0.7 C 3.56 g/m*3 0.7 C 0 km/h
65 30-12-2010 12:49:02 1.1 C 3.61 g/m*3 1.1 C 0 km/h
66 30-12-2010 13:01:01 0.9 C 3.51 g/m*3 0.9 C 0 km/h
67 30-12-2010 13:13:01 1 C 3.58 g/m*3 1 C 0 km/h
68 30-12-2010 13:25:02 1.1 C 3.61 g/m*3 1.1 C 0 km/h
69 30-12-2010 13:37:02 1.5 C 3.65 g/m*3 1.5 C 0 km/h
70 30-12-2010 13:49:02 1.5 C 3.6 g/m*3 1.5 C 0 km/h
71 30-12-2010 14:01:02 1.5 C 3.6 g/m*3 1.5 C 0 km/h
72 30-12-2010 14:13:02 1.4 C 3.57 g/m*3 1.4 C 0 km/h
73 30-12-2010 14:25:02 1 C 3.53 g/m*3 1 C 0 km/h
74 30-12-2010 14:37:02 1.3 C 3.66 g/m*3 1.3 C 0 km/h
75 30-12-2010 14:49:01 1.4 C 3.68 g/m*3 1.4 C 0 km/h
Sensor: Nr:Datum:Temp:Abs-Feuchte:Windchill:Wind:
Aussen-T/F 76 30-12-2010 15:01:02 1.4 C 3.68 g/m*3 1.4 C 0 km/h
77 30-12-2010 15:13:02 1.1 C 3.61 g/m*3 1.1 C 0 km/h
78 30-12-2010 15:25:01 0.9 C 3.66 g/m*3 0.9 C 0 km/h
79 30-12-2010 15:37:02 0.8 C 3.69 g/m*3 0.8 C 0 km/h
80 30-12-2010 15:49:01 0.7 C 3.71 g/m*3 0.7 C 0 km/h
81 30-12-2010 16:01:02 0.6 C 3.74 g/m*3 0.6 C 0 km/h
82 30-12-2010 16:13:03 0.3 C 3.71 g/m*3 0.3 C 0 km/h
83 30-12-2010 16:25:01 0.3 C 3.76 g/m*3 0.3 C 0 km/h
84 30-12-2010 16:37:02 0.2 C 3.68 g/m*3 0.2 C 0 km/h
85 30-12-2010 16:49:01 0.1 C 3.76 g/m*3 0.1 C 0 km/h
86 30-12-2010 17:01:02 0.1 C 3.76 g/m*3 0.1 C 0 km/h
87 30-12-2010 17:13:02 0.1 C 3.76 g/m*3 0.1 C 0 km/h
88 30-12-2010 17:25:02 0.1 C 3.76 g/m*3 0.1 C 0 km/h
89 30-12-2010 17:37:01 0.1 C 3.76 g/m*3 0.1 C 0 km/h
90 30-12-2010 17:49:02 -0.2 C 3.68 g/m*3 -0.2 C 0 km/h
91 30-12-2010 18:01:01 -0.1 C 3.71 g/m*3 -0.1 C 0 km/h
92 30-12-2010 18:13:01 -0.2 C 3.68 g/m*3 -0.2 C 0 km/h
93 30-12-2010 18:25:02 -0.4 C 3.63 g/m*3 -0.4 C 0 km/h
94 30-12-2010 18:37:01 -0.4 C 3.68 g/m*3 -0.4 C 0 km/h
95 30-12-2010 18:49:03 -0.4 C 3.72 g/m*3 -0.4 C 0 km/h
96 30-12-2010 19:01:02 -0.4 C 3.72 g/m*3 -0.4 C 0 km/h
97 30-12-2010 19:13:02 -0.4 C 3.77 g/m*3 -0.4 C 0 km/h
98 30-12-2010 19:25:02 -0.5 C 3.74 g/m*3 -0.5 C 0 km/h
99 30-12-2010 19:37:03 -0.5 C 3.74 g/m*3 -0.5 C 0 km/h
100 30-12-2010 19:49:02 -0.4 C 3.77 g/m*3 -0.4 C 0 km/h
Sensor: Nr:Datum:Temp:Abs-Feuchte:Windchill:Wind:
Aussen-T/F 101 30-12-2010 20:01:01 -0.4 C 3.72 g/m*3 -0.4 C 0 km/h
102 30-12-2010 20:13:01 -0.5 C 3.7 g/m*3 -0.5 C 0 km/h
103 30-12-2010 20:25:02 -0.5 C 3.7 g/m*3 -0.5 C 0 km/h
104 30-12-2010 20:37:02 -0.5 C 3.74 g/m*3 -0.5 C 0 km/h
105 30-12-2010 20:49:01 -0.5 C 3.7 g/m*3 -0.5 C 0 km/h
106 30-12-2010 21:01:02 -0.5 C 3.65 g/m*3 -0.5 C 0 km/h
107 30-12-2010 21:13:02 -0.6 C 3.63 g/m*3 -0.6 C 0 km/h
108 30-12-2010 21:25:01 -0.6 C 3.63 g/m*3 -0.6 C 0 km/h
109 30-12-2010 21:37:02 -0.7 C 3.6 g/m*3 -0.7 C 0 km/h
110 30-12-2010 21:49:02 -0.6 C 3.63 g/m*3 -0.6 C 0 km/h
111 30-12-2010 22:01:02 -0.7 C 3.65 g/m*3 -0.7 C 0 km/h
112 30-12-2010 22:13:03 -0.7 C 3.6 g/m*3 -0.7 C 0 km/h
113 30-12-2010 22:25:01 -0.8 C 3.58 g/m*3 -0.8 C 0 km/h
114 30-12-2010 22:37:02 -0.8 C 3.58 g/m*3 -0.8 C 0 km/h
115 30-12-2010 22:49:01 -0.9 C 3.55 g/m*3 -0.9 C 0 km/h
116 30-12-2010 23:01:02 -0.9 C 3.55 g/m*3 -0.9 C 0 km/h
117 30-12-2010 23:13:02 -0.9 C 3.55 g/m*3 -0.9 C 0 km/h
118 30-12-2010 23:25:02 -0.9 C 3.51 g/m*3 -0.9 C 0 km/h
119 30-12-2010 23:37:01 -1 C 3.48 g/m*3 -1 C 0 km/h
120 30-12-2010 23:49:02 -1.1 C 3.46 g/m*3 -1.1 C 0 km/h

Legende:
   Min
   Max


Maximal/Minimal-Werte vom 30.12.2010 - 30.12.2010

Sensor Min Max Avg
Temp
(Aussen-T/F)
-9.3 °C
30-12-2010  05:49:01
1.5 °C
30-12-2010  13:37:02
-0.55 °C
Abs-Feuchte
(Aussen-T/F)
2.01 g/m*3
30-12-2010  05:49:01
3.86 g/m*3
30-12-2010  03:25:00
3.59 g/m*3
Windchill
(Aussen-T/F)
-9.3 C
30-12-2010  05:49:01
1.5 C
30-12-2010  13:37:02
-0.55 C

Die Daten stammen von einer Davis Vantage Pro 2 Wetter-Station und werden unter Linux mit der Software wview2wettercgi und aufbereitet. Alle Angaben erfolgen ohne Gewähr für ihre Vollständigkeit oder Richtigkeit.
Kontakt: Rainer Krienke krienke@uni-koblenz.de . Meine Webseiten an der Uni Koblenz oder privat.
Version: $Revision: 0.78 $